createdAt,value
2023-05-06T00:00:27.710Z,101495.31
2023-05-06T00:02:54.475Z,101504.19
2023-05-06T00:05:20.938Z,101492.78
2023-05-06T00:07:47.339Z,101496.06
2023-05-06T00:10:13.809Z,101496.53
2023-05-06T00:12:40.405Z,101493.06
2023-05-06T00:15:07.557Z,101484.91
2023-05-06T00:17:34.229Z,101494.31
2023-05-06T00:20:00.743Z,101484.88
2023-05-06T00:22:27.139Z,101487.34
2023-05-06T00:24:53.553Z,101489.13
2023-05-06T00:27:19.974Z,101489.84
2023-05-06T00:29:46.376Z,101499.78
2023-05-06T00:32:12.825Z,101496.56
2023-05-06T00:34:39.430Z,101496.56
2023-05-06T00:37:05.810Z,101501.00
2023-05-06T00:39:32.253Z,101503.72
2023-05-06T00:42:02.401Z,101499.75
2023-05-06T00:44:29.652Z,101503.00
2023-05-06T00:46:57.004Z,101505.47
2023-05-06T00:49:23.935Z,101503.72
2023-05-06T00:51:51.912Z,101509.16
2023-05-06T00:54:18.672Z,101511.63
2023-05-06T00:56:45.238Z,101505.97
2023-05-06T00:59:11.624Z,101511.88
2023-05-06T01:01:38.260Z,101517.34
2023-05-06T01:04:04.958Z,101507.66
2023-05-06T01:06:49.977Z,101506.47
2023-05-06T01:09:21.183Z,101507.44
2023-05-06T01:11:55.563Z,101500.72
2023-05-06T01:14:47.235Z,101503.34
2023-05-06T01:17:18.315Z,101505.47
2023-05-06T01:19:46.995Z,101515.13
2023-05-06T01:22:13.561Z,101511.00
2023-05-06T01:24:42.089Z,101512.81
2023-05-06T01:27:09.269Z,101513.31
2023-05-06T01:29:36.936Z,101508.38
2023-05-06T01:32:26.432Z,101518.66
2023-05-06T01:35:06.652Z,101520.00
2023-05-06T01:37:58.403Z,101520.09
2023-05-06T01:40:26.484Z,101526.16
2023-05-06T01:42:53.076Z,101530.03
2023-05-06T01:45:21.096Z,101526.56
2023-05-06T01:47:47.837Z,101525.72
2023-05-06T01:50:14.264Z,101530.00
2023-05-06T01:52:41.181Z,101532.03
2023-05-06T01:55:08.271Z,101533.53
2023-05-06T01:57:35.342Z,101536.69
2023-05-06T02:00:01.838Z,101535.06
2023-05-06T02:02:28.287Z,101537.63
2023-05-06T02:04:54.793Z,101540.31
2023-05-06T02:07:21.204Z,101530.97
2023-05-06T02:09:47.623Z,101535.41
2023-05-06T02:12:14.021Z,101539.19
2023-05-06T02:14:40.453Z,101526.88
2023-05-06T02:17:06.937Z,101528.63
2023-05-06T02:19:34.319Z,101527.75
2023-05-06T02:22:00.724Z,101529.44
2023-05-06T02:24:27.087Z,101530.25
2023-05-06T02:26:53.472Z,101532.91
2023-05-06T02:29:19.842Z,101532.41
2023-05-06T02:31:46.284Z,101534.13
2023-05-06T02:34:12.725Z,101537.22
2023-05-06T02:36:39.143Z,101538.91
2023-05-06T02:39:05.534Z,101533.31
2023-05-06T02:41:31.936Z,101538.31
2023-05-06T02:43:58.562Z,101540.19
2023-05-06T02:46:25.060Z,101543.16
2023-05-06T02:48:51.550Z,101543.41
2023-05-06T02:51:17.966Z,101543.97
2023-05-06T02:53:44.371Z,101538.53
2023-05-06T02:56:11.098Z,101543.44
2023-05-06T02:58:37.481Z,101537.84
2023-05-06T03:01:03.933Z,101535.69
2023-05-06T03:03:30.610Z,101534.13
2023-05-06T03:05:57.037Z,101539.03
2023-05-06T03:08:23.575Z,101534.47
2023-05-06T03:10:51.008Z,101526.44
2023-05-06T03:13:17.340Z,101519.97
2023-05-06T03:15:43.928Z,101505.75
2023-05-06T03:18:10.380Z,101497.69
2023-05-06T03:20:36.774Z,101494.72
2023-05-06T03:23:03.563Z,101506.94
2023-05-06T03:25:30.301Z,101510.47
2023-05-06T03:27:56.690Z,101519.38
2023-05-06T03:30:23.168Z,101520.72
2023-05-06T03:32:49.565Z,101511.09
2023-05-06T03:35:16.636Z,101520.03
2023-05-06T03:37:43.164Z,101528.38
2023-05-06T03:40:09.694Z,101531.91
2023-05-06T03:42:36.351Z,101529.59
2023-05-06T03:45:03.110Z,101527.28
2023-05-06T03:47:29.817Z,101526.66
2023-05-06T03:49:56.214Z,101539.59
2023-05-06T03:52:22.650Z,101535.22
2023-05-06T03:54:49.782Z,101523.81
2023-05-06T03:57:16.216Z,101525.31
2023-05-06T03:59:42.603Z,101537.19
2023-05-06T04:02:09.277Z,101530.66
2023-05-06T04:04:36.011Z,101537.13
2023-05-06T04:07:03.741Z,101543.28
2023-05-06T04:09:32.022Z,101545.94
2023-05-06T04:11:58.439Z,101539.41
2023-05-06T04:14:25.133Z,101551.25
2023-05-06T04:16:51.516Z,101546.09
2023-05-06T04:19:18.059Z,101549.91
2023-05-06T04:21:44.670Z,101558.97
2023-05-06T04:24:11.540Z,101552.59
2023-05-06T04:26:38.187Z,101561.69
2023-05-06T04:29:04.587Z,101554.81
2023-05-06T04:31:32.509Z,101571.06
2023-05-06T04:33:58.973Z,101570.78
2023-05-06T04:36:25.380Z,101574.56
2023-05-06T04:38:53.204Z,101580.38
2023-05-06T04:41:20.497Z,101583.72
2023-05-06T04:43:47.091Z,101577.97
2023-05-06T04:46:13.541Z,101585.06
2023-05-06T04:48:39.973Z,101586.56
2023-05-06T04:51:06.454Z,101589.44
2023-05-06T04:53:32.836Z,101587.31
2023-05-06T04:55:59.222Z,101582.94
2023-05-06T04:58:25.651Z,101582.22
2023-05-06T05:00:52.085Z,101586.72
2023-05-06T05:03:18.893Z,101581.72
2023-05-06T05:05:45.465Z,101589.81
2023-05-06T05:08:13.265Z,101583.84
2023-05-06T05:10:45.323Z,101607.06
2023-05-06T05:13:11.775Z,101606.28
2023-05-06T05:15:38.988Z,101603.31
2023-05-06T05:18:05.778Z,101601.75
2023-05-06T05:20:32.172Z,101611.34
2023-05-06T05:22:58.581Z,101616.25
2023-05-06T05:25:24.992Z,101605.78
2023-05-06T05:27:51.680Z,101615.94
2023-05-06T05:30:18.261Z,101610.16
2023-05-06T05:32:44.790Z,101604.66
2023-05-06T05:35:11.505Z,101599.94
2023-05-06T05:37:38.186Z,101605.59
2023-05-06T05:40:05.442Z,101614.41
2023-05-06T05:42:33.692Z,101607.06
2023-05-06T05:45:00.514Z,101616.78
2023-05-06T05:47:26.917Z,101621.69
2023-05-06T05:49:53.320Z,101629.88
2023-05-06T05:52:19.880Z,101623.25
2023-05-06T05:54:46.364Z,101622.19
2023-05-06T05:57:12.889Z,101622.88
2023-05-06T05:59:39.262Z,101634.72
2023-05-06T06:02:06.334Z,101634.53
2023-05-06T06:04:32.802Z,101628.38
2023-05-06T06:07:01.257Z,101624.31
2023-05-06T06:09:27.734Z,101624.47
2023-05-06T06:11:54.572Z,101633.41
2023-05-06T06:14:20.957Z,101628.94
2023-05-06T06:16:47.417Z,101632.69
2023-05-06T06:19:14.084Z,101638.06
2023-05-06T06:21:40.525Z,101643.34
2023-05-06T06:24:06.962Z,101645.16
2023-05-06T06:26:33.351Z,101648.78
2023-05-06T06:29:00.030Z,101659.22
2023-05-06T06:31:26.427Z,101655.81
2023-05-06T06:33:52.881Z,101657.19
2023-05-06T06:36:19.266Z,101651.16
2023-05-06T06:38:45.654Z,101658.47
2023-05-06T06:41:12.053Z,101669.13
2023-05-06T06:43:38.564Z,101667.84
2023-05-06T06:46:05.023Z,101661.19
2023-05-06T06:48:31.638Z,101677.75
2023-05-06T06:50:58.046Z,101672.03
2023-05-06T06:53:24.682Z,101679.47
2023-05-06T06:55:51.095Z,101677.97
2023-05-06T06:58:17.527Z,101683.75
2023-05-06T07:00:43.901Z,101684.97
2023-05-06T07:03:10.470Z,101685.22
2023-05-06T07:05:36.925Z,101685.69
2023-05-06T07:08:03.562Z,101681.81
2023-05-06T07:10:29.951Z,101681.78
2023-05-06T07:12:56.492Z,101683.22
2023-05-06T07:15:23.254Z,101683.25
2023-05-06T07:17:49.978Z,101690.94
2023-05-06T07:20:16.549Z,101693.88
2023-05-06T07:22:43.672Z,101701.34
2023-05-06T07:25:10.562Z,101696.91
2023-05-06T07:27:37.318Z,101701.41
2023-05-06T07:30:03.967Z,101701.59
2023-05-06T07:32:30.745Z,101694.66
2023-05-06T07:34:57.156Z,101703.75
2023-05-06T07:37:23.525Z,101707.22
2023-05-06T07:39:49.910Z,101705.16
2023-05-06T07:42:16.338Z,101709.44
2023-05-06T07:44:43.135Z,101709.19
2023-05-06T07:47:09.800Z,101710.59
2023-05-06T07:49:36.405Z,101711.56
2023-05-06T07:52:04.284Z,101710.31
2023-05-06T07:54:31.873Z,101711.03
2023-05-06T07:56:58.404Z,101708.56
2023-05-06T07:59:24.849Z,101711.50
2023-05-06T08:01:51.394Z,101714.44
2023-05-06T08:04:17.879Z,101725.44
2023-05-06T08:06:44.349Z,101720.72
2023-05-06T08:09:14.747Z,101724.84
2023-05-06T08:11:46.334Z,101722.81
2023-05-06T08:14:12.828Z,101738.66
2023-05-06T08:16:39.349Z,101734.25
2023-05-06T08:19:05.738Z,101734.06
2023-05-06T08:21:32.210Z,101727.44
2023-05-06T08:23:58.648Z,101733.53
2023-05-06T08:26:25.090Z,101742.00
2023-05-06T08:28:51.581Z,101744.31
2023-05-06T08:31:18.061Z,101738.34
2023-05-06T08:33:44.475Z,101737.16
2023-05-06T08:36:10.878Z,101736.81
2023-05-06T08:38:37.278Z,101745.81
2023-05-06T08:41:09.288Z,101749.34
2023-05-06T08:43:41.485Z,101740.66
2023-05-06T08:46:08.065Z,101745.84
2023-05-06T08:48:34.841Z,101755.94
2023-05-06T08:51:03.466Z,101755.00
2023-05-06T08:53:30.804Z,101765.75
2023-05-06T08:56:08.643Z,101760.47
2023-05-06T08:58:37.558Z,101754.38
2023-05-06T09:01:04.778Z,101754.16
2023-05-06T09:03:31.731Z,101762.94
2023-05-06T09:05:58.374Z,101765.16
2023-05-06T09:08:24.781Z,101763.66
2023-05-06T09:10:51.437Z,101762.41
2023-05-06T09:13:19.436Z,101765.41
2023-05-06T09:15:48.288Z,101765.59
2023-05-06T09:18:15.960Z,101767.03
2023-05-06T09:20:47.318Z,101765.91
2023-05-06T09:23:15.530Z,101758.84
2023-05-06T09:25:43.018Z,101764.16
2023-05-06T09:28:11.187Z,101772.03
2023-05-06T09:30:45.105Z,101763.25
2023-05-06T09:33:11.944Z,101775.25
2023-05-06T09:35:39.970Z,101771.16
2023-05-06T09:38:07.531Z,101771.41
2023-05-06T09:40:38.067Z,101765.88
2023-05-06T09:43:05.011Z,101763.91
2023-05-06T09:45:31.833Z,101763.34
2023-05-06T09:47:58.598Z,101763.34
2023-05-06T09:50:25.856Z,101756.94
2023-05-06T09:52:52.290Z,101755.47
2023-05-06T09:55:19.809Z,101747.53
2023-05-06T09:57:46.671Z,101742.53
2023-05-06T10:00:14.676Z,101758.22
2023-05-06T10:02:41.553Z,101760.94
2023-05-06T10:05:09.768Z,101755.84
2023-05-06T10:07:36.876Z,101756.50
2023-05-06T10:10:04.348Z,101762.22
2023-05-06T10:12:31.324Z,101767.34
2023-05-06T10:14:57.788Z,101755.44
2023-05-06T10:17:25.797Z,101764.31
2023-05-06T10:19:57.206Z,101760.00
2023-05-06T10:22:41.897Z,101760.41
2023-05-06T10:25:19.269Z,101750.63
2023-05-06T10:27:46.668Z,101752.03
2023-05-06T10:30:15.775Z,101744.44
2023-05-06T10:32:44.283Z,101755.88
2023-05-06T10:35:17.535Z,101759.41
2023-05-06T10:37:46.159Z,101755.66
2023-05-06T10:40:12.589Z,101761.44
2023-05-06T10:42:38.994Z,101758.03
2023-05-06T10:45:06.430Z,101751.31
2023-05-06T10:47:54.552Z,101743.75
2023-05-06T10:50:27.919Z,101749.56
2023-05-06T10:52:56.697Z,101747.03
2023-05-06T10:55:34.611Z,101730.59
2023-05-06T10:58:06.119Z,101736.81
2023-05-06T11:00:33.802Z,101737.94
2023-05-06T11:03:07.207Z,101739.22
2023-05-06T11:05:49.505Z,101731.84
2023-05-06T11:08:21.978Z,101737.19
2023-05-06T11:10:48.370Z,101740.00
2023-05-06T11:13:25.132Z,101749.88
2023-05-06T11:15:52.282Z,101748.97
2023-05-06T11:18:33.528Z,101741.41
2023-05-06T11:20:59.838Z,101745.66
2023-05-06T11:23:46.847Z,101750.81
2023-05-06T11:26:14.092Z,101748.00
2023-05-06T11:28:43.719Z,101749.66
2023-05-06T11:31:10.408Z,101744.59
2023-05-06T11:33:37.846Z,101750.13
2023-05-06T11:36:05.045Z,101737.19
2023-05-06T11:38:46.213Z,101737.56
2023-05-06T11:41:13.371Z,101733.06
2023-05-06T11:43:40.245Z,101742.78
2023-05-06T11:46:06.993Z,101742.91
2023-05-06T11:48:33.442Z,101744.56
2023-05-06T11:51:00.118Z,101737.75
2023-05-06T11:53:26.569Z,101744.75
2023-05-06T11:55:53.800Z,101745.75
2023-05-06T11:58:26.317Z,101741.72
2023-05-06T12:00:59.422Z,101747.56
2023-05-06T12:03:27.908Z,101749.59
2023-05-06T12:05:54.948Z,101746.06
2023-05-06T12:08:27.964Z,101751.41
2023-05-06T12:10:56.388Z,101754.22
2023-05-06T12:13:22.948Z,101751.84
2023-05-06T12:15:52.563Z,101750.81
2023-05-06T12:18:19.076Z,101756.31
2023-05-06T12:20:45.636Z,101760.56
2023-05-06T12:23:14.177Z,101759.78
2023-05-06T12:25:41.214Z,101759.00
2023-05-06T12:28:15.481Z,101755.25
2023-05-06T12:30:41.880Z,101768.44
2023-05-06T12:33:09.233Z,101759.41
2023-05-06T12:35:35.735Z,101762.81
2023-05-06T12:38:15.423Z,101762.72
2023-05-06T12:40:42.866Z,101764.25
2023-05-06T12:43:10.549Z,101773.28
2023-05-06T12:45:39.378Z,101768.44
2023-05-06T12:48:06.783Z,101779.19
2023-05-06T12:50:33.432Z,101758.94
2023-05-06T12:53:00.325Z,101761.63
2023-05-06T12:55:26.995Z,101754.53
2023-05-06T12:57:53.539Z,101754.69
2023-05-06T13:00:20.024Z,101749.41
2023-05-06T13:02:46.906Z,101757.94
2023-05-06T13:05:14.297Z,101752.69
2023-05-06T13:07:43.942Z,101758.31
2023-05-06T13:10:11.300Z,101757.91
2023-05-06T13:12:38.108Z,101757.13
2023-05-06T13:15:04.954Z,101756.84
2023-05-06T13:17:31.463Z,101754.72
2023-05-06T13:19:57.965Z,101748.88
2023-05-06T13:22:24.401Z,101741.25
2023-05-06T13:24:51.390Z,101747.50
2023-05-06T13:27:17.889Z,101747.09
2023-05-06T13:29:44.362Z,101748.19
2023-05-06T13:32:10.805Z,101754.31
2023-05-06T13:34:37.371Z,101745.66
2023-05-06T13:37:03.788Z,101736.31
2023-05-06T13:39:30.857Z,101729.28
2023-05-06T13:41:57.338Z,101732.44
2023-05-06T13:44:24.589Z,101724.34
2023-05-06T13:46:51.165Z,101735.91
2023-05-06T13:49:18.656Z,101730.28
2023-05-06T13:51:45.032Z,101739.84
2023-05-06T13:54:11.506Z,101737.94
2023-05-06T13:56:38.067Z,101733.59
2023-05-06T13:59:04.499Z,101734.97
2023-05-06T14:01:30.992Z,101726.09
2023-05-06T14:03:57.399Z,101734.09
2023-05-06T14:06:23.912Z,101734.00
2023-05-06T14:08:50.336Z,101726.00
2023-05-06T14:11:16.856Z,101733.38
2023-05-06T14:13:43.346Z,101727.56
2023-05-06T14:16:10.065Z,101718.47
2023-05-06T14:18:36.538Z,101724.28
2023-05-06T14:21:03.671Z,101716.59
2023-05-06T14:23:30.227Z,101722.44
2023-05-06T14:25:56.641Z,101722.22
2023-05-06T14:28:23.610Z,101714.28
2023-05-06T14:30:50.920Z,101724.06
2023-05-06T14:33:17.488Z,101717.84
2023-05-06T14:35:46.018Z,101713.44
2023-05-06T14:38:12.449Z,101710.81
2023-05-06T14:40:38.976Z,101699.16
2023-05-06T14:43:07.291Z,101700.06
2023-05-06T14:45:33.785Z,101698.84
2023-05-06T14:48:00.392Z,101704.22
2023-05-06T14:50:26.904Z,101705.91
2023-05-06T14:52:53.313Z,101701.66
2023-05-06T14:55:20.328Z,101697.72
2023-05-06T14:57:46.832Z,101692.09
2023-05-06T15:00:14.906Z,101679.63
2023-05-06T15:02:42.147Z,101686.06
2023-05-06T15:05:10.012Z,101692.13
2023-05-06T15:07:36.883Z,101696.53
2023-05-06T15:10:04.115Z,101703.50
2023-05-06T15:12:30.514Z,101702.88
2023-05-06T15:14:57.076Z,101703.97
2023-05-06T15:17:23.644Z,101715.84
2023-05-06T15:19:50.189Z,101714.88
2023-05-06T15:22:16.885Z,101714.72
2023-05-06T15:24:44.416Z,101709.72
2023-05-06T15:27:10.874Z,101711.44
2023-05-06T15:29:38.927Z,101713.09
2023-05-06T15:32:06.924Z,101713.97
2023-05-06T15:34:33.513Z,101724.63
2023-05-06T15:37:02.565Z,101728.88
2023-05-06T15:39:29.097Z,101720.69
2023-05-06T15:41:58.255Z,101723.94
2023-05-06T15:44:26.822Z,101719.63
2023-05-06T15:46:53.627Z,101726.16
2023-05-06T15:49:47.501Z,101732.00
2023-05-06T15:52:06.628Z,101721.06
2023-05-06T15:54:40.981Z,101731.84
2023-05-06T15:57:07.691Z,101732.75
2023-05-06T15:59:34.148Z,101730.63
2023-05-06T16:02:26.355Z,101740.59
2023-05-06T16:04:47.151Z,101739.09
2023-05-06T16:07:13.793Z,101734.94
2023-05-06T16:09:40.306Z,101731.72
2023-05-06T16:12:06.776Z,101733.28
2023-05-06T16:14:33.288Z,101733.81
2023-05-06T16:16:59.862Z,101736.84
2023-05-06T16:19:26.287Z,101735.09
2023-05-06T16:21:53.372Z,101733.84
2023-05-06T16:24:20.879Z,101736.38
2023-05-06T16:26:47.293Z,101730.91
2023-05-06T16:29:15.557Z,101738.75
2023-05-06T16:31:41.978Z,101736.88
2023-05-06T16:34:08.558Z,101735.47
2023-05-06T16:36:35.156Z,101734.66
2023-05-06T16:39:01.541Z,101720.44
2023-05-06T16:41:27.964Z,101728.25
2023-05-06T16:43:54.344Z,101720.28
2023-05-06T16:46:23.377Z,101720.00
2023-05-06T16:48:51.309Z,101721.56
2023-05-06T16:51:17.847Z,101731.00
2023-05-06T16:53:44.319Z,101723.09
2023-05-06T16:56:11.126Z,101718.97
2023-05-06T16:58:37.706Z,101713.13
2023-05-06T17:01:07.741Z,101709.13
2023-05-06T17:03:37.723Z,101708.03
2023-05-06T17:06:04.375Z,101716.47
2023-05-06T17:10:59.877Z,101716.84
2023-05-06T17:13:26.318Z,101717.47
2023-05-06T17:15:52.713Z,101723.16
2023-05-06T17:18:19.144Z,101724.44
2023-05-06T17:20:55.089Z,101732.41
2023-05-06T17:23:22.862Z,101729.53
2023-05-06T17:25:49.432Z,101731.63
2023-05-06T17:28:16.864Z,101723.69
2023-05-06T17:30:45.044Z,101729.53
2023-05-06T17:33:11.672Z,101737.47
2023-05-06T17:35:38.192Z,101745.16
2023-05-06T17:38:04.579Z,101733.72
2023-05-06T17:40:30.968Z,101740.78
2023-05-06T17:42:57.386Z,101736.06
2023-05-06T17:45:25.222Z,101733.88
2023-05-06T17:47:51.642Z,101742.75
2023-05-06T17:50:18.078Z,101739.84
2023-05-06T17:52:46.482Z,101734.75
2023-05-06T17:55:17.031Z,101730.97
2023-05-06T17:57:44.060Z,101737.34
2023-05-06T18:00:11.362Z,101751.22
2023-05-06T18:02:37.929Z,101750.34
2023-05-06T18:05:04.703Z,101748.88
2023-05-06T18:07:31.148Z,101740.22
2023-05-06T18:09:57.593Z,101746.41
2023-05-06T18:12:24.018Z,101746.13
2023-05-06T18:14:50.625Z,101757.28
2023-05-06T18:17:17.020Z,101753.00
2023-05-06T18:19:43.447Z,101762.47
2023-05-06T18:22:09.751Z,101767.06
2023-05-06T18:24:37.185Z,101763.56
2023-05-06T18:27:03.686Z,101766.59
2023-05-06T18:29:32.383Z,101762.13
2023-05-06T18:31:59.164Z,101768.06
2023-05-06T18:34:25.631Z,101770.00
2023-05-06T18:36:52.083Z,101769.31
2023-05-06T18:39:18.452Z,101773.97
2023-05-06T18:41:45.010Z,101767.94
2023-05-06T18:44:11.722Z,101767.69
2023-05-06T18:46:38.141Z,101773.13
2023-05-06T18:49:04.702Z,101781.41
2023-05-06T18:51:32.065Z,101776.00
2023-05-06T18:53:58.586Z,101777.19
2023-05-06T18:56:25.358Z,101772.81
2023-05-06T18:58:52.193Z,101791.06
2023-05-06T19:01:18.864Z,101789.38
2023-05-06T19:03:47.360Z,101788.47
2023-05-06T19:06:13.899Z,101794.91
2023-05-06T19:08:40.774Z,101793.44
2023-05-06T19:11:14.209Z,101802.53
2023-05-06T19:13:42.080Z,101798.44
2023-05-06T19:16:08.517Z,101797.66
2023-05-06T19:18:35.185Z,101782.34
2023-05-06T19:21:01.620Z,101789.44
2023-05-06T19:23:28.137Z,101786.16
2023-05-06T19:25:54.631Z,101797.53
2023-05-06T19:28:21.161Z,101801.63
2023-05-06T19:30:48.823Z,101812.25
2023-05-06T19:33:16.292Z,101808.75
2023-05-06T19:35:42.789Z,101812.03
2023-05-06T19:38:09.321Z,101812.47
2023-05-06T19:40:35.844Z,101812.22
2023-05-06T19:43:03.883Z,101807.34
2023-05-06T19:45:31.357Z,101814.78
2023-05-06T19:47:58.521Z,101818.81
2023-05-06T19:50:26.843Z,101815.44
2023-05-06T19:52:53.385Z,101812.13
2023-05-06T19:55:20.519Z,101816.25
2023-05-06T19:57:46.922Z,101807.47
2023-05-06T20:00:13.971Z,101809.97
2023-05-06T20:02:40.425Z,101818.25
2023-05-06T20:05:07.044Z,101815.34
2023-05-06T20:07:33.654Z,101819.34
2023-05-06T20:10:00.454Z,101822.19
2023-05-06T20:12:26.856Z,101813.72
2023-05-06T20:14:56.626Z,101822.84
2023-05-06T20:17:23.719Z,101822.19
2023-05-06T20:19:50.500Z,101822.06
2023-05-06T20:22:16.871Z,101821.81
2023-05-06T20:24:44.164Z,101820.03
2023-05-06T20:27:10.633Z,101821.31
2023-05-06T20:29:37.237Z,101826.84
2023-05-06T20:32:03.816Z,101827.34
2023-05-06T20:34:30.398Z,101824.13
2023-05-06T20:36:56.824Z,101836.75
2023-05-06T20:39:23.687Z,101842.41
2023-05-06T20:41:50.456Z,101843.97
2023-05-06T20:44:16.915Z,101843.41
2023-05-06T20:46:44.074Z,101844.78
2023-05-06T20:49:10.493Z,101850.44
2023-05-06T20:51:36.900Z,101848.88
2023-05-06T20:54:03.936Z,101841.97
2023-05-06T20:56:30.346Z,101857.84
2023-05-06T20:58:56.902Z,101862.09
2023-05-06T21:01:25.334Z,101866.53
2023-05-06T21:03:51.998Z,101862.06
2023-05-06T21:06:19.090Z,101864.06
2023-05-06T21:08:46.362Z,101863.88
2023-05-06T21:11:13.234Z,101861.41
2023-05-06T21:13:40.057Z,101858.63
2023-05-06T21:16:06.440Z,101863.50
2023-05-06T21:18:32.999Z,101842.09
2023-05-06T21:20:59.789Z,101847.72
2023-05-06T21:23:26.492Z,101849.34
2023-05-06T21:25:52.816Z,101845.03
2023-05-06T21:28:19.096Z,101849.91
2023-05-06T21:30:45.537Z,101851.16
2023-05-06T21:33:11.925Z,101845.13
2023-05-06T21:35:38.230Z,101832.44
2023-05-06T21:38:04.579Z,101838.34
2023-05-06T21:40:30.883Z,101845.59
2023-05-06T21:42:57.224Z,101834.56
2023-05-06T21:45:23.525Z,101842.84
2023-05-06T21:47:49.958Z,101831.19
2023-05-06T21:50:16.309Z,101836.34
2023-05-06T21:52:42.676Z,101841.56
2023-05-06T21:55:09.143Z,101835.94
2023-05-06T21:57:35.794Z,101842.25
2023-05-06T22:00:06.876Z,101835.50
2023-05-06T22:02:33.218Z,101832.97
2023-05-06T22:04:59.535Z,101837.56
2023-05-06T22:07:25.873Z,101838.56
2023-05-06T22:09:52.409Z,101836.69
2023-05-06T22:12:18.744Z,101839.00
2023-05-06T22:14:45.091Z,101835.88
2023-05-06T22:17:12.278Z,101841.03
2023-05-06T22:19:38.837Z,101841.22
2023-05-06T22:22:05.717Z,101841.03
2023-05-06T22:24:31.995Z,101842.13
2023-05-06T22:26:58.339Z,101851.22
2023-05-06T22:29:24.635Z,101850.88
2023-05-06T22:31:50.936Z,101845.03
2023-05-06T22:34:17.322Z,101848.19
2023-05-06T22:36:43.619Z,101849.63
2023-05-06T22:39:09.932Z,101854.50
2023-05-06T22:41:36.382Z,101864.41
2023-05-06T22:44:02.722Z,101857.59
2023-05-06T22:46:29.275Z,101860.50
2023-05-06T22:48:55.713Z,101860.13
2023-05-06T22:51:22.077Z,101858.38
2023-05-06T22:53:48.389Z,101849.72
2023-05-06T22:56:14.677Z,101846.63
2023-05-06T22:58:40.989Z,101857.03
2023-05-06T23:01:07.749Z,101851.34
2023-05-06T23:03:34.826Z,101857.88
2023-05-06T23:06:01.350Z,101858.00
2023-05-06T23:08:27.644Z,101866.16
2023-05-06T23:10:54.024Z,101864.78
2023-05-06T23:13:20.448Z,101857.97
2023-05-06T23:15:46.857Z,101854.31
2023-05-06T23:18:13.318Z,101858.59
2023-05-06T23:20:39.701Z,101863.34
2023-05-06T23:23:06.487Z,101863.13
2023-05-06T23:25:32.807Z,101860.94
2023-05-06T23:27:59.103Z,101857.06
2023-05-06T23:30:25.394Z,101871.22
2023-05-06T23:32:51.816Z,101870.69
2023-05-06T23:35:18.160Z,101865.66
2023-05-06T23:37:44.454Z,101864.56
2023-05-06T23:40:13.291Z,101874.56
2023-05-06T23:42:40.003Z,101865.75
2023-05-06T23:45:06.514Z,101864.44
2023-05-06T23:47:32.846Z,101877.97
2023-05-06T23:50:00.620Z,101874.75
2023-05-06T23:52:27.237Z,101871.31
2023-05-06T23:54:53.885Z,101877.88
2023-05-06T23:57:20.736Z,101876.31
2023-05-06T23:59:47.021Z,101874.28
